QTR8067 LEMD-OTHH
Flight info
| Callsign | QTR8067 |
|---|---|
| Flight time | N/A |
| Altitude | 30000 |
| Route | NANDO M871 MINGU/N0492F320 M871 LASPO Z224 NINES/N0494F310 DCT OLMIR DCT XARON DCT GENIO DCT LUXUR UM134 ANB UA411 MORJA DCT SONAK/N0488F330 DCT DINUX DCT AGARI DCT ARLOS DCT SALUN N705 MMA P751 DASUM Y234 FYM M872 BDB Y214 RAPMA/N0512F290 Y214 ASPUS Y432 LADBO T142 LAEEB |
| Aircraft | B77L/H-SDE1E2E3FGHIJ2J3J4J5M1RWXY/LB1D1 |
Departure
| Time | 2026-04-30 08:34 |
|---|---|
| Airport | Adolfo Suárez Madrid–Barajas Airport (LEMD) |
Arrival
| Time | N/A |
|---|---|
| Airport | Hamad International Airport (OTHH) |
| Time | Latitude | Longitude | Altitude | Speed | Heading |
|---|---|---|---|---|---|
| 2026-04-30 07:37 | 40.46047 | -3.55826 | 1956 ft | 0 kts | 360° |
| 2026-04-30 07:40 | 40.46042 | -3.55825 | 1956 ft | 0 kts | 360° |
| 2026-04-30 07:40 | 40.46036 | -3.55825 | 1956 ft | 3 kts | 360° |
| 2026-04-30 08:00 | 40.46035 | -3.55825 | 1956 ft | 1 kts | 360° |
| 2026-04-30 08:00 | 40.46010 | -3.55825 | 1956 ft | 4 kts | 360° |
| 2026-04-30 08:01 | 40.45986 | -3.55825 | 1957 ft | 4 kts | 348° |
| 2026-04-30 08:01 | 40.45968 | -3.55815 | 1956 ft | 4 kts | 304° |
| 2026-04-30 08:01 | 40.45961 | -3.55787 | 1955 ft | 4 kts | 272° |
| 2026-04-30 08:01 | 40.45960 | -3.55759 | 1954 ft | 1 kts | 270° |
| 2026-04-30 08:02 | 40.45960 | -3.55754 | 1954 ft | 1 kts | 270° |
| 2026-04-30 08:11 | 40.45960 | -3.55771 | 1954 ft | 5 kts | 270° |
| 2026-04-30 08:12 | 40.45960 | -3.55851 | 1957 ft | 10 kts | 270° |
| 2026-04-30 08:12 | 40.45960 | -3.55946 | 1959 ft | 10 kts | 270° |
| 2026-04-30 08:12 | 40.45961 | -3.56041 | 1962 ft | 10 kts | 270° |
| 2026-04-30 08:12 | 40.45961 | -3.56134 | 1964 ft | 10 kts | 270° |
| 2026-04-30 08:13 | 40.45961 | -3.56229 | 1967 ft | 10 kts | 270° |
| 2026-04-30 08:13 | 40.45961 | -3.56324 | 1971 ft | 10 kts | 270° |
| 2026-04-30 08:13 | 40.45960 | -3.56419 | 1972 ft | 10 kts | 270° |
| 2026-04-30 08:13 | 40.45977 | -3.56506 | 1978 ft | 10 kts | 316° |
| 2026-04-30 08:14 | 40.46046 | -3.56523 | 1975 ft | 10 kts | 6° |
| 2026-04-30 08:14 | 40.46118 | -3.56513 | 1978 ft | 10 kts | 4° |
| 2026-04-30 08:14 | 40.46190 | -3.56511 | 1979 ft | 10 kts | 347° |
| 2026-04-30 08:14 | 40.46228 | -3.56578 | 1975 ft | 9 kts | 306° |
| 2026-04-30 08:15 | 40.46289 | -3.56597 | 1975 ft | 9 kts | 4° |
| 2026-04-30 08:15 | 40.46352 | -3.56592 | 1976 ft | 9 kts | 3° |
| 2026-04-30 08:15 | 40.46417 | -3.56587 | 1976 ft | 9 kts | 4° |
| 2026-04-30 08:15 | 40.46485 | -3.56581 | 1976 ft | 11 kts | 3° |
| 2026-04-30 08:16 | 40.46562 | -3.56576 | 1977 ft | 11 kts | 2° |
| 2026-04-30 08:16 | 40.46640 | -3.56570 | 1977 ft | 12 kts | 3° |
| 2026-04-30 08:16 | 40.46733 | -3.56563 | 1978 ft | 14 kts | 3° |
| 2026-04-30 08:16 | 40.46833 | -3.56555 | 1979 ft | 14 kts | 3° |
| 2026-04-30 08:17 | 40.46934 | -3.56547 | 1980 ft | 14 kts | 2° |
| 2026-04-30 08:17 | 40.47033 | -3.56552 | 1982 ft | 14 kts | 349° |
| 2026-04-30 08:17 | 40.47125 | -3.56604 | 1984 ft | 14 kts | 327° |
| 2026-04-30 08:17 | 40.47205 | -3.56683 | 1987 ft | 14 kts | 321° |
| 2026-04-30 08:18 | 40.47283 | -3.56763 | 1990 ft | 14 kts | 322° |
| 2026-04-30 08:18 | 40.47363 | -3.56843 | 1992 ft | 14 kts | 322° |
| 2026-04-30 08:18 | 40.47443 | -3.56923 | 1995 ft | 14 kts | 322° |
| 2026-04-30 08:18 | 40.47522 | -3.57005 | 1997 ft | 14 kts | 321° |
| 2026-04-30 08:19 | 40.47599 | -3.57085 | 2000 ft | 14 kts | 321° |
| 2026-04-30 08:19 | 40.47678 | -3.57167 | 2003 ft | 14 kts | 321° |
| 2026-04-30 08:19 | 40.47758 | -3.57247 | 2005 ft | 14 kts | 323° |
| 2026-04-30 08:19 | 40.47838 | -3.57326 | 2008 ft | 14 kts | 323° |
| 2026-04-30 08:20 | 40.47917 | -3.57405 | 2009 ft | 14 kts | 322° |
| 2026-04-30 08:20 | 40.47996 | -3.57487 | 2006 ft | 14 kts | 322° |
| 2026-04-30 08:20 | 40.48075 | -3.57568 | 2002 ft | 14 kts | 322° |
| 2026-04-30 08:20 | 40.48154 | -3.57649 | 2002 ft | 14 kts | 323° |
| 2026-04-30 08:21 | 40.48235 | -3.57728 | 1999 ft | 14 kts | 323° |
| 2026-04-30 08:21 | 40.48314 | -3.57807 | 1996 ft | 15 kts | 323° |
| 2026-04-30 08:21 | 40.48397 | -3.57886 | 1995 ft | 15 kts | 329° |
| 2026-04-30 08:21 | 40.48484 | -3.57957 | 2001 ft | 15 kts | 328° |
| 2026-04-30 08:22 | 40.48572 | -3.58027 | 2007 ft | 15 kts | 334° |
| 2026-04-30 08:22 | 40.48672 | -3.58047 | 2007 ft | 15 kts | 358° |
| 2026-04-30 08:22 | 40.48774 | -3.58048 | 2007 ft | 15 kts | 359° |
| 2026-04-30 08:22 | 40.48853 | -3.57994 | 2005 ft | 15 kts | 75° |
| 2026-04-30 08:23 | 40.48857 | -3.57848 | 2000 ft | 17 kts | 90° |
| 2026-04-30 08:23 | 40.48857 | -3.57690 | 1996 ft | 17 kts | 90° |
| 2026-04-30 08:23 | 40.48858 | -3.57531 | 1993 ft | 17 kts | 90° |
| 2026-04-30 08:23 | 40.48858 | -3.57371 | 1990 ft | 17 kts | 89° |
| 2026-04-30 08:24 | 40.48859 | -3.57212 | 1987 ft | 17 kts | 89° |
| 2026-04-30 08:24 | 40.48860 | -3.57052 | 1984 ft | 17 kts | 90° |
| 2026-04-30 08:24 | 40.48860 | -3.56895 | 1981 ft | 17 kts | 90° |
| 2026-04-30 08:24 | 40.48861 | -3.56735 | 1978 ft | 17 kts | 90° |
| 2026-04-30 08:25 | 40.48861 | -3.56577 | 1975 ft | 15 kts | 90° |
| 2026-04-30 08:25 | 40.48861 | -3.56534 | 1974 ft | 1 kts | 90° |
| 2026-04-30 08:25 | 40.48861 | -3.56477 | 1972 ft | 13 kts | 90° |
| 2026-04-30 08:25 | 40.48861 | -3.56332 | 1968 ft | 15 kts | 90° |
| 2026-04-30 08:26 | 40.48909 | -3.56245 | 1966 ft | 10 kts | 16° |
| 2026-04-30 08:26 | 40.48971 | -3.56243 | 1966 ft | 11 kts | 360° |
| 2026-04-30 08:26 | 40.49078 | -3.56244 | 1966 ft | 18 kts | 359° |
| 2026-04-30 08:26 | 40.49206 | -3.56244 | 1966 ft | 18 kts | 0° |
| 2026-04-30 08:27 | 40.49334 | -3.56245 | 1966 ft | 18 kts | 360° |
| 2026-04-30 08:27 | 40.49460 | -3.56246 | 1966 ft | 17 kts | 359° |
| 2026-04-30 08:27 | 40.49566 | -3.56249 | 1966 ft | 15 kts | 359° |
| 2026-04-30 08:27 | 40.49674 | -3.56250 | 1966 ft | 15 kts | 360° |
| 2026-04-30 08:28 | 40.49780 | -3.56248 | 1966 ft | 15 kts | 1° |
| 2026-04-30 08:28 | 40.49851 | -3.56249 | 1966 ft | 15 kts | 359° |
| 2026-04-30 08:28 | 40.49923 | -3.56236 | 1965 ft | 7 kts | 38° |
| 2026-04-30 08:28 | 40.49938 | -3.56153 | 1963 ft | 11 kts | 88° |
| 2026-04-30 08:29 | 40.49939 | -3.56127 | 1962 ft | 0 kts | 88° |
| 2026-04-30 08:32 | 40.49939 | -3.56110 | 1962 ft | 9 kts | 88° |
| 2026-04-30 08:32 | 40.49971 | -3.55981 | 1964 ft | 17 kts | 53° |
| 2026-04-30 08:33 | 40.50081 | -3.55917 | 1964 ft | 25 kts | 359° |
| 2026-04-30 08:33 | 40.50442 | -3.55923 | 1967 ft | 89 kts | 359° |
| 2026-04-30 08:33 | 40.51328 | -3.55929 | 1956 ft | 164 kts | 360° |
| 2026-04-30 08:33 | 40.52658 | -3.55936 | 2075 ft | 208 kts | 0° |
| 2026-04-30 08:34 | 40.54107 | -3.55933 | 2697 ft | 211 kts | 0° |
| 2026-04-30 08:34 | 40.55592 | -3.55936 | 3380 ft | 214 kts | 0° |
| 2026-04-30 08:34 | 40.57100 | -3.55933 | 4063 ft | 217 kts | 1° |
| 2026-04-30 08:34 | 40.58634 | -3.55941 | 4548 ft | 223 kts | 357° |
| 2026-04-30 08:35 | 40.60202 | -3.55622 | 4825 ft | 233 kts | 18° |
| 2026-04-30 08:35 | 40.61770 | -3.54960 | 5239 ft | 242 kts | 17° |
| 2026-04-30 08:35 | 40.63388 | -3.54308 | 5723 ft | 245 kts | 14° |
| 2026-04-30 08:35 | 40.65009 | -3.53494 | 5979 ft | 260 kts | 37° |
| 2026-04-30 08:36 | 40.66123 | -3.51573 | 6236 ft | 274 kts | 73° |
| 2026-04-30 08:36 | 40.66625 | -3.49126 | 6620 ft | 281 kts | 66° |
| 2026-04-30 08:36 | 40.67846 | -3.47110 | 7054 ft | 286 kts | 35° |
| 2026-04-30 08:36 | 40.69419 | -3.45542 | 7590 ft | 288 kts | 42° |
| 2026-04-30 08:37 | 40.70898 | -3.43701 | 8229 ft | 293 kts | 44° |
| 2026-04-30 08:37 | 40.72385 | -3.41836 | 8905 ft | 296 kts | 43° |
| 2026-04-30 08:37 | 40.73799 | -3.39835 | 9400 ft | 301 kts | 60° |
| 2026-04-30 08:37 | 40.74509 | -3.37233 | 9917 ft | 303 kts | 88° |
| 2026-04-30 08:38 | 40.74293 | -3.34525 | 10426 ft | 306 kts | 112° |
| 2026-04-30 08:38 | 40.73240 | -3.32042 | 10556 ft | 318 kts | 130° |
| 2026-04-30 08:38 | 40.71838 | -3.29663 | 10741 ft | 339 kts | 131° |
| 2026-04-30 08:38 | 40.70214 | -3.27322 | 10857 ft | 353 kts | 146° |
| 2026-04-30 08:39 | 40.68008 | -3.25841 | 11072 ft | 363 kts | 161° |
| 2026-04-30 08:39 | 40.65622 | -3.24625 | 11598 ft | 371 kts | 161° |
| 2026-04-30 08:39 | 40.63199 | -3.23384 | 12304 ft | 375 kts | 161° |
| 2026-04-30 08:39 | 40.60759 | -3.22122 | 13069 ft | 378 kts | 161° |
| 2026-04-30 08:40 | 40.58302 | -3.20841 | 13747 ft | 382 kts | 161° |
| 2026-04-30 08:40 | 40.55808 | -3.19535 | 14380 ft | 388 kts | 161° |
| 2026-04-30 08:40 | 40.53283 | -3.18208 | 15009 ft | 393 kts | 161° |
| 2026-04-30 08:40 | 40.50736 | -3.16866 | 15644 ft | 397 kts | 161° |
| 2026-04-30 08:41 | 40.48152 | -3.15505 | 16252 ft | 401 kts | 161° |
| 2026-04-30 08:41 | 40.45544 | -3.14131 | 16847 ft | 405 kts | 161° |
| 2026-04-30 08:41 | 40.42906 | -3.12745 | 17425 ft | 410 kts | 161° |
| 2026-04-30 08:41 | 40.40274 | -3.11275 | 17936 ft | 414 kts | 155° |
| 2026-04-30 08:42 | 40.37911 | -3.09047 | 18300 ft | 425 kts | 141° |
| 2026-04-30 08:42 | 40.35705 | -3.06421 | 18750 ft | 431 kts | 141° |
| 2026-04-30 08:42 | 40.33482 | -3.03761 | 19328 ft | 434 kts | 141° |
| 2026-04-30 08:42 | 40.31260 | -3.01140 | 19888 ft | 436 kts | 142° |
| 2026-04-30 08:43 | 40.28981 | -2.98497 | 20420 ft | 439 kts | 142° |
| 2026-04-30 08:43 | 40.26670 | -2.95855 | 20913 ft | 443 kts | 143° |
| 2026-04-30 08:43 | 40.24321 | -2.93188 | 21391 ft | 447 kts | 143° |
| 2026-04-30 08:43 | 40.21951 | -2.90505 | 21866 ft | 451 kts | 143° |
| 2026-04-30 08:44 | 40.19572 | -2.87810 | 22346 ft | 454 kts | 143° |
| 2026-04-30 08:44 | 40.17176 | -2.85098 | 22803 ft | 458 kts | 144° |
| 2026-04-30 08:44 | 40.14783 | -2.82323 | 23210 ft | 461 kts | 139° |
| 2026-04-30 08:44 | 40.12863 | -2.78933 | 23404 ft | 480 kts | 119° |
| 2026-04-30 08:45 | 40.11781 | -2.74774 | 23740 ft | 487 kts | 107° |
| 2026-04-30 08:45 | 40.10912 | -2.70458 | 24096 ft | 492 kts | 108° |
| 2026-04-30 08:45 | 40.09993 | -2.66138 | 24488 ft | 495 kts | 109° |
| 2026-04-30 08:45 | 40.09034 | -2.61803 | 24916 ft | 498 kts | 110° |
| 2026-04-30 08:46 | 40.08051 | -2.57454 | 25324 ft | 501 kts | 110° |
| 2026-04-30 08:46 | 40.07051 | -2.53072 | 25706 ft | 505 kts | 110° |
| 2026-04-30 08:46 | 40.06057 | -2.48723 | 26081 ft | 508 kts | 110° |
| 2026-04-30 08:46 | 40.05030 | -2.44231 | 26459 ft | 511 kts | 110° |
| 2026-04-30 08:47 | 40.04023 | -2.39826 | 26804 ft | 514 kts | 110° |
| 2026-04-30 08:47 | 40.02999 | -2.35348 | 27158 ft | 517 kts | 110° |
| 2026-04-30 08:47 | 40.01963 | -2.30826 | 27508 ft | 520 kts | 110° |
| 2026-04-30 08:47 | 40.00922 | -2.26289 | 27847 ft | 523 kts | 110° |
| 2026-04-30 08:48 | 39.99876 | -2.21733 | 28202 ft | 525 kts | 110° |
| 2026-04-30 08:48 | 39.98823 | -2.17166 | 28523 ft | 527 kts | 111° |
| 2026-04-30 08:48 | 39.97758 | -2.12573 | 28819 ft | 530 kts | 111° |
| 2026-04-30 08:48 | 39.96685 | -2.07959 | 29102 ft | 533 kts | 111° |
| 2026-04-30 08:49 | 39.95606 | -2.03327 | 29385 ft | 535 kts | 111° |
| 2026-04-30 08:49 | 39.94536 | -1.98737 | 29680 ft | 537 kts | 111° |
| 2026-04-30 08:49 | 39.93447 | -1.94069 | 29987 ft | 538 kts | 111° |
| 2026-04-30 08:50 | 39.91260 | -1.84731 | 30118 ft | 538 kts | 111° |
| 2026-04-30 08:50 | 39.89073 | -1.75424 | 30127 ft | 537 kts | 111° |
| 2026-04-30 08:51 | 39.86880 | -1.66136 | 30122 ft | 536 kts | 111° |
| 2026-04-30 08:51 | 39.84682 | -1.56857 | 30126 ft | 536 kts | 111° |
| 2026-04-30 08:52 | 39.82478 | -1.47588 | 30126 ft | 536 kts | 111° |
| 2026-04-30 08:52 | 39.80262 | -1.38327 | 30097 ft | 535 kts | 111° |
| 2026-04-30 08:52 | 39.79002 | -1.33808 | 30095 ft | 527 kts | 122° |
| 2026-04-30 08:53 | 39.77000 | -1.29894 | 30117 ft | 515 kts | 137° |
| 2026-04-30 08:53 | 39.74414 | -1.26739 | 30118 ft | 507 kts | 149° |
| 2026-04-30 08:53 | 39.71463 | -1.24442 | 30114 ft | 493 kts | 163° |
| 2026-04-30 08:54 | 39.65100 | -1.20995 | 30095 ft | 497 kts | 162° |
| 2026-04-30 08:54 | 39.58835 | -1.17230 | 30100 ft | 499 kts | 156° |
| 2026-04-30 08:54 | 39.55949 | -1.14620 | 30093 ft | 510 kts | 144° |
| 2026-04-30 08:55 | 39.53427 | -1.11338 | 30098 ft | 518 kts | 135° |
| 2026-04-30 08:55 | 39.51386 | -1.07518 | 30104 ft | 525 kts | 124° |
| 2026-04-30 08:55 | 39.49649 | -1.03334 | 30086 ft | 527 kts | 122° |
| 2026-04-30 08:56 | 39.46191 | -0.94959 | 30092 ft | 525 kts | 123° |
| 2026-04-30 08:56 | 39.42585 | -0.86731 | 30087 ft | 524 kts | 124° |
| 2026-04-30 08:57 | 39.38999 | -0.78574 | 30080 ft | 524 kts | 124° |
| 2026-04-30 08:57 | 39.35379 | -0.70381 | 30086 ft | 524 kts | 124° |
| 2026-04-30 08:58 | 39.31757 | -0.62194 | 30076 ft | 524 kts | 124° |
| 2026-04-30 08:58 | 39.28407 | -0.53804 | 30089 ft | 528 kts | 116° |
| 2026-04-30 08:59 | 39.26153 | -0.44742 | 30081 ft | 532 kts | 108° |
| 2026-04-30 08:59 | 39.24306 | -0.35546 | 30074 ft | 533 kts | 108° |
| 2026-04-30 09:00 | 39.22407 | -0.26313 | 30074 ft | 532 kts | 108° |
| 2026-04-30 09:00 | 39.20461 | -0.17083 | 30075 ft | 532 kts | 108° |
| 2026-04-30 09:01 | 39.18510 | -0.07907 | 30074 ft | 526 kts | 108° |
| 2026-04-30 09:01 | 39.16580 | 0.01145 | 30076 ft | 525 kts | 108° |
| 2026-04-30 09:02 | 39.13649 | 0.14804 | 30075 ft | 529 kts | 108° |
| 2026-04-30 09:02 | 39.11683 | 0.23949 | 30072 ft | 529 kts | 108° |
| 2026-04-30 09:03 | 39.09709 | 0.33075 | 30068 ft | 528 kts | 108° |
| 2026-04-30 09:03 | 39.07733 | 0.42179 | 30064 ft | 528 kts | 108° |
| 2026-04-30 09:04 | 39.05762 | 0.51218 | 30067 ft | 528 kts | 108° |
| 2026-04-30 09:04 | 39.03773 | 0.60320 | 30063 ft | 528 kts | 108° |
| 2026-04-30 09:05 | 39.01782 | 0.69401 | 30063 ft | 527 kts | 108° |
| 2026-04-30 09:05 | 38.99796 | 0.78446 | 30052 ft | 527 kts | 108° |
| 2026-04-30 09:06 | 38.97798 | 0.87524 | 30056 ft | 528 kts | 108° |
| 2026-04-30 09:06 | 38.95788 | 0.96608 | 30055 ft | 528 kts | 108° |
| 2026-04-30 09:07 | 38.93765 | 1.05660 | 30055 ft | 527 kts | 108° |
| 2026-04-30 09:07 | 38.91736 | 1.14714 | 30052 ft | 527 kts | 108° |
| 2026-04-30 09:08 | 38.89701 | 1.23754 | 30047 ft | 527 kts | 108° |
| 2026-04-30 09:08 | 38.87676 | 1.32735 | 30046 ft | 527 kts | 108° |
| 2026-04-30 09:09 | 38.85559 | 1.41744 | 30044 ft | 526 kts | 110° |
| 2026-04-30 09:09 | 38.83228 | 1.50662 | 30044 ft | 525 kts | 110° |
| 2026-04-30 09:10 | 38.80961 | 1.59520 | 30046 ft | 525 kts | 110° |
| 2026-04-30 09:10 | 38.78687 | 1.68454 | 30045 ft | 525 kts | 110° |
| 2026-04-30 09:11 | 38.76412 | 1.77353 | 30049 ft | 525 kts | 110° |
| 2026-04-30 09:11 | 38.74127 | 1.86246 | 30045 ft | 525 kts | 110° |
| 2026-04-30 09:12 | 38.71849 | 1.95085 | 30047 ft | 524 kts | 110° |
| 2026-04-30 09:12 | 38.69549 | 2.03980 | 30054 ft | 525 kts | 110° |
| 2026-04-30 09:13 | 38.67265 | 2.12775 | 30058 ft | 524 kts | 110° |
| 2026-04-30 09:13 | 38.64543 | 2.21403 | 30061 ft | 521 kts | 118° |
| 2026-04-30 09:14 | 38.61367 | 2.29747 | 30058 ft | 521 kts | 118° |
| 2026-04-30 09:14 | 38.58735 | 2.36705 | 30053 ft | 522 kts | 118° |
| 2026-04-30 09:15 | 38.55607 | 2.45089 | 30055 ft | 522 kts | 118° |
| 2026-04-30 09:15 | 38.52473 | 2.53474 | 30127 ft | 525 kts | 118° |
| 2026-04-30 09:16 | 38.50914 | 2.57639 | 30431 ft | 525 kts | 118° |
| 2026-04-30 09:16 | 38.49340 | 2.61849 | 30863 ft | 522 kts | 118° |
| 2026-04-30 09:16 | 38.47779 | 2.66022 | 31285 ft | 520 kts | 118° |
| 2026-04-30 09:16 | 38.46222 | 2.70179 | 31688 ft | 518 kts | 118° |
| 2026-04-30 09:17 | 38.44660 | 2.74341 | 32056 ft | 516 kts | 118° |
| 2026-04-30 09:17 | 38.43127 | 2.78426 | 32348 ft | 516 kts | 118° |
| 2026-04-30 09:17 | 38.41568 | 2.82564 | 32599 ft | 517 kts | 118° |
| 2026-04-30 09:17 | 38.40009 | 2.86698 | 32872 ft | 517 kts | 118° |
| 2026-04-30 09:18 | 38.38448 | 2.90837 | 33011 ft | 517 kts | 118° |
| 2026-04-30 09:18 | 38.36902 | 2.94943 | 33041 ft | 517 kts | 118° |
| 2026-04-30 09:18 | 38.33771 | 3.03250 | 33070 ft | 518 kts | 118° |
| 2026-04-30 09:19 | 38.30657 | 3.11483 | 33075 ft | 517 kts | 118° |
| 2026-04-30 09:19 | 38.27827 | 3.19860 | 33076 ft | 519 kts | 112° |
| 2026-04-30 09:20 | 38.25332 | 3.28510 | 33077 ft | 519 kts | 112° |
| 2026-04-30 09:20 | 38.22824 | 3.37083 | 33072 ft | 519 kts | 112° |
| 2026-04-30 09:21 | 38.20255 | 3.45664 | 33075 ft | 518 kts | 113° |
| 2026-04-30 09:21 | 38.17605 | 3.54179 | 33073 ft | 518 kts | 113° |
| 2026-04-30 09:22 | 38.14927 | 3.62698 | 33075 ft | 518 kts | 113° |
| 2026-04-30 09:22 | 38.12268 | 3.71168 | 33074 ft | 518 kts | 113° |
| 2026-04-30 09:23 | 38.09612 | 3.79639 | 33073 ft | 517 kts | 113° |
| 2026-04-30 09:23 | 38.06936 | 3.88145 | 33075 ft | 517 kts | 113° |
| 2026-04-30 09:24 | 38.04257 | 3.96636 | 33082 ft | 517 kts | 113° |
| 2026-04-30 09:24 | 38.01589 | 4.05069 | 33084 ft | 518 kts | 113° |
| 2026-04-30 09:25 | 37.98898 | 4.13548 | 33084 ft | 518 kts | 113° |
| 2026-04-30 09:25 | 37.96218 | 4.21968 | 33082 ft | 518 kts | 113° |
| 2026-04-30 09:26 | 37.93513 | 4.30449 | 33084 ft | 518 kts | 113° |
| 2026-04-30 09:26 | 37.90800 | 4.38913 | 33084 ft | 518 kts | 114° |
| 2026-04-30 09:27 | 37.88097 | 4.47318 | 33082 ft | 518 kts | 114° |
| 2026-04-30 09:27 | 37.85375 | 4.55771 | 33083 ft | 517 kts | 114° |
| 2026-04-30 09:28 | 37.82665 | 4.64167 | 33083 ft | 518 kts | 114° |
| 2026-04-30 09:28 | 37.79928 | 4.72613 | 33085 ft | 518 kts | 114° |
| 2026-04-30 09:29 | 37.77198 | 4.81013 | 33080 ft | 518 kts | 114° |
| 2026-04-30 09:29 | 37.74441 | 4.89469 | 33085 ft | 519 kts | 114° |
| 2026-04-30 09:30 | 37.71682 | 4.97914 | 33082 ft | 519 kts | 114° |
| 2026-04-30 09:30 | 37.69014 | 5.06359 | 33083 ft | 520 kts | 112° |
| 2026-04-30 09:31 | 37.66489 | 5.14953 | 33082 ft | 521 kts | 111° |
| 2026-04-30 09:31 | 37.63985 | 5.23497 | 33068 ft | 521 kts | 111° |
| 2026-04-30 09:32 | 37.61439 | 5.32060 | 33074 ft | 521 kts | 111° |
| 2026-04-30 09:32 | 37.58872 | 5.40598 | 33076 ft | 522 kts | 112° |
| 2026-04-30 09:33 | 37.56302 | 5.49123 | 33072 ft | 522 kts | 112° |
| 2026-04-30 09:33 | 37.53705 | 5.57708 | 33076 ft | 523 kts | 112° |
| 2026-04-30 09:34 | 37.51104 | 5.66278 | 33073 ft | 523 kts | 112° |
| 2026-04-30 09:34 | 37.48508 | 5.74813 | 33075 ft | 524 kts | 112° |
| 2026-04-30 09:35 | 37.45884 | 5.83414 | 33073 ft | 524 kts | 112° |
| 2026-04-30 09:35 | 37.43278 | 5.91926 | 33074 ft | 524 kts | 112° |
| 2026-04-30 09:36 | 37.40652 | 6.00485 | 33081 ft | 524 kts | 112° |
| 2026-04-30 09:36 | 37.38015 | 6.09050 | 33083 ft | 526 kts | 112° |
| 2026-04-30 09:37 | 37.35373 | 6.17604 | 33085 ft | 527 kts | 112° |
| 2026-04-30 09:37 | 37.32716 | 6.26183 | 33080 ft | 525 kts | 112° |
| 2026-04-30 09:38 | 37.30056 | 6.34744 | 33081 ft | 524 kts | 112° |
| 2026-04-30 09:38 | 37.27409 | 6.43235 | 33085 ft | 525 kts | 112° |
| 2026-04-30 09:39 | 37.24734 | 6.51789 | 33084 ft | 525 kts | 112° |
| 2026-04-30 09:39 | 37.22071 | 6.60285 | 33082 ft | 525 kts | 112° |
| 2026-04-30 09:40 | 37.19382 | 6.68827 | 33083 ft | 525 kts | 112° |
| 2026-04-30 09:40 | 37.16703 | 6.77325 | 33066 ft | 525 kts | 112° |
| 2026-04-30 09:41 | 37.14004 | 6.85860 | 33069 ft | 526 kts | 112° |
| 2026-04-30 09:41 | 37.11309 | 6.94355 | 33077 ft | 526 kts | 112° |
| 2026-04-30 09:42 | 37.08594 | 7.02893 | 33068 ft | 526 kts | 112° |
| 2026-04-30 09:42 | 37.05886 | 7.11375 | 33063 ft | 526 kts | 112° |
| 2026-04-30 09:43 | 37.03148 | 7.19921 | 33067 ft | 527 kts | 112° |
| 2026-04-30 09:43 | 37.00423 | 7.28409 | 33066 ft | 528 kts | 112° |
| 2026-04-30 09:44 | 36.97678 | 7.36936 | 33058 ft | 528 kts | 112° |
| 2026-04-30 09:44 | 36.94931 | 7.45439 | 33054 ft | 528 kts | 112° |
| 2026-04-30 09:45 | 36.92169 | 7.53966 | 33057 ft | 528 kts | 112° |
| 2026-04-30 09:45 | 36.89424 | 7.62422 | 33059 ft | 528 kts | 112° |
| 2026-04-30 09:46 | 36.86645 | 7.70959 | 33051 ft | 528 kts | 112° |
| 2026-04-30 09:46 | 36.84211 | 7.79574 | 33039 ft | 529 kts | 103° |
| 2026-04-30 09:47 | 36.83135 | 7.88667 | 33053 ft | 528 kts | 90° |
| 2026-04-30 09:47 | 36.83170 | 7.97790 | 33049 ft | 527 kts | 87° |
| 2026-04-30 09:48 | 36.83291 | 8.06974 | 33042 ft | 528 kts | 87° |
| 2026-04-30 09:48 | 36.83354 | 8.16110 | 33053 ft | 529 kts | 88° |
| 2026-04-30 09:49 | 36.83377 | 8.25323 | 33059 ft | 530 kts | 88° |
| 2026-04-30 09:49 | 36.83390 | 8.34554 | 33051 ft | 530 kts | 88° |
| 2026-04-30 09:50 | 36.83399 | 8.43722 | 33057 ft | 529 kts | 88° |
| 2026-04-30 09:50 | 36.83405 | 8.52861 | 33056 ft | 529 kts | 88° |
| 2026-04-30 09:51 | 36.83403 | 8.62064 | 33052 ft | 529 kts | 88° |
| 2026-04-30 09:51 | 36.83092 | 8.71234 | 33061 ft | 531 kts | 93° |
| 2026-04-30 09:52 | 36.82475 | 8.80434 | 33061 ft | 532 kts | 93° |
| 2026-04-30 09:52 | 36.81833 | 8.89596 | 33050 ft | 531 kts | 93° |
| 2026-04-30 09:53 | 36.81213 | 8.98801 | 33062 ft | 531 kts | 93° |
| 2026-04-30 09:53 | 36.80605 | 9.07978 | 33056 ft | 532 kts | 93° |
| 2026-04-30 09:54 | 36.79995 | 9.17164 | 33058 ft | 532 kts | 93° |
| 2026-04-30 09:54 | 36.79371 | 9.26392 | 33053 ft | 532 kts | 93° |
| 2026-04-30 09:55 | 36.78743 | 9.35554 | 33054 ft | 533 kts | 93° |
| 2026-04-30 09:55 | 36.78102 | 9.44811 | 33039 ft | 534 kts | 93° |
| 2026-04-30 09:56 | 36.77454 | 9.54055 | 33051 ft | 534 kts | 93° |
| 2026-04-30 09:56 | 36.76802 | 9.63234 | 33045 ft | 533 kts | 93° |
| 2026-04-30 09:57 | 36.76139 | 9.72480 | 33038 ft | 534 kts | 93° |
| 2026-04-30 09:57 | 36.75474 | 9.81666 | 33048 ft | 535 kts | 93° |
| 2026-04-30 09:58 | 36.74796 | 9.90931 | 33047 ft | 535 kts | 94° |
| 2026-04-30 09:58 | 36.74109 | 10.00175 | 33040 ft | 534 kts | 94° |
| 2026-04-30 09:59 | 36.72720 | 10.18640 | 33045 ft | 536 kts | 94° |
| 2026-04-30 10:00 | 36.71661 | 10.32479 | 33050 ft | 535 kts | 94° |
| 2026-04-30 10:01 | 36.70585 | 10.46310 | 33042 ft | 535 kts | 94° |
| 2026-04-30 10:02 | 36.69488 | 10.60145 | 33048 ft | 536 kts | 94° |
| 2026-04-30 10:02 | 36.68751 | 10.69382 | 33048 ft | 535 kts | 94° |
| 2026-04-30 10:03 | 36.68132 | 10.77062 | 33045 ft | 536 kts | 94° |
| 2026-04-30 10:03 | 36.67382 | 10.86307 | 33047 ft | 537 kts | 94° |
| 2026-04-30 10:04 | 36.66623 | 10.95556 | 33049 ft | 536 kts | 94° |
| 2026-04-30 10:04 | 36.65854 | 11.04802 | 33048 ft | 536 kts | 94° |
| 2026-04-30 10:05 | 36.65083 | 11.14004 | 33046 ft | 536 kts | 94° |
| 2026-04-30 10:05 | 36.64304 | 11.23228 | 33051 ft | 536 kts | 94° |
| 2026-04-30 10:06 | 36.63516 | 11.32462 | 33040 ft | 536 kts | 94° |
| 2026-04-30 10:06 | 36.62720 | 11.41703 | 33048 ft | 536 kts | 95° |
| 2026-04-30 10:07 | 36.61293 | 11.50773 | 33046 ft | 538 kts | 106° |
| 2026-04-30 10:07 | 36.58610 | 11.59462 | 33051 ft | 537 kts | 116° |
| 2026-04-30 10:08 | 36.55368 | 11.67853 | 33049 ft | 538 kts | 116° |
| 2026-04-30 10:08 | 36.52203 | 11.76292 | 33047 ft | 537 kts | 114° |
| 2026-04-30 10:09 | 36.49741 | 11.84994 | 33053 ft | 538 kts | 104° |
| 2026-04-30 10:09 | 36.48389 | 11.94119 | 33056 ft | 536 kts | 97° |
| 2026-04-30 10:10 | 36.47304 | 12.03296 | 33044 ft | 536 kts | 97° |
| 2026-04-30 10:10 | 36.46195 | 12.12414 | 33047 ft | 537 kts | 97° |
| 2026-04-30 10:11 | 36.45038 | 12.21598 | 33047 ft | 538 kts | 98° |
| 2026-04-30 10:11 | 36.43855 | 12.30775 | 33048 ft | 537 kts | 98° |
| 2026-04-30 10:12 | 36.42669 | 12.39954 | 33040 ft | 537 kts | 98° |
| 2026-04-30 10:12 | 36.41478 | 12.49110 | 33049 ft | 537 kts | 98° |
| 2026-04-30 10:13 | 36.40287 | 12.58227 | 33048 ft | 537 kts | 98° |
| 2026-04-30 10:13 | 36.39086 | 12.67385 | 33038 ft | 537 kts | 98° |
| 2026-04-30 10:14 | 36.37874 | 12.76548 | 33034 ft | 537 kts | 98° |
| 2026-04-30 10:14 | 36.36056 | 12.90243 | 33040 ft | 538 kts | 98° |
| 2026-04-30 10:15 | 36.34822 | 12.99424 | 33048 ft | 538 kts | 98° |
| 2026-04-30 10:15 | 36.33588 | 13.08560 | 33039 ft | 538 kts | 98° |
| 2026-04-30 10:16 | 36.32345 | 13.17714 | 33034 ft | 538 kts | 98° |
| 2026-04-30 10:17 | 36.30467 | 13.31462 | 33040 ft | 539 kts | 99° |
| 2026-04-30 10:17 | 36.28568 | 13.45222 | 33037 ft | 540 kts | 99° |
| 2026-04-30 10:18 | 36.27300 | 13.54342 | 33046 ft | 540 kts | 99° |
| 2026-04-30 10:19 | 36.25371 | 13.68128 | 33047 ft | 541 kts | 99° |
| 2026-04-30 10:19 | 36.24073 | 13.77328 | 33048 ft | 541 kts | 99° |
| 2026-04-30 10:20 | 36.22771 | 13.86521 | 33043 ft | 542 kts | 99° |
| 2026-04-30 10:20 | 36.20802 | 14.00312 | 33047 ft | 542 kts | 99° |
| 2026-04-30 10:21 | 36.19479 | 14.09511 | 33046 ft | 542 kts | 99° |
| 2026-04-30 10:21 | 36.18159 | 14.18632 | 33047 ft | 542 kts | 99° |
| 2026-04-30 10:22 | 36.16822 | 14.27813 | 33049 ft | 542 kts | 99° |
| 2026-04-30 10:22 | 36.15477 | 14.37000 | 33038 ft | 541 kts | 99° |
| 2026-04-30 10:23 | 36.14132 | 14.46163 | 33046 ft | 541 kts | 99° |
| 2026-04-30 10:23 | 36.12778 | 14.55326 | 33048 ft | 541 kts | 99° |
| 2026-04-30 10:24 | 36.11423 | 14.64435 | 33046 ft | 541 kts | 99° |
| 2026-04-30 10:24 | 36.10052 | 14.73600 | 33049 ft | 541 kts | 100° |
| 2026-04-30 10:25 | 36.08677 | 14.82737 | 33038 ft | 540 kts | 100° |
| 2026-04-30 10:25 | 36.07297 | 14.91874 | 33048 ft | 540 kts | 100° |
| 2026-04-30 10:26 | 36.05912 | 15.00995 | 33043 ft | 540 kts | 100° |
| 2026-04-30 10:26 | 36.04516 | 15.10125 | 33046 ft | 541 kts | 100° |
| 2026-04-30 10:27 | 36.03122 | 15.19201 | 33046 ft | 541 kts | 100° |
| 2026-04-30 10:27 | 36.01712 | 15.28338 | 33045 ft | 541 kts | 100° |
| 2026-04-30 10:28 | 36.00294 | 15.37472 | 33053 ft | 542 kts | 100° |
| 2026-04-30 10:28 | 35.98865 | 15.46631 | 33056 ft | 544 kts | 100° |
| 2026-04-30 10:29 | 35.97423 | 15.55837 | 33057 ft | 547 kts | 100° |
| 2026-04-30 10:29 | 35.95980 | 15.65056 | 33054 ft | 546 kts | 99° |
| 2026-04-30 10:30 | 35.94600 | 15.74264 | 33055 ft | 545 kts | 99° |
| 2026-04-30 10:30 | 35.93241 | 15.83468 | 33056 ft | 545 kts | 99° |
| 2026-04-30 10:31 | 35.91863 | 15.92668 | 33055 ft | 545 kts | 99° |
| 2026-04-30 10:31 | 35.90470 | 16.01869 | 33056 ft | 546 kts | 99° |
| 2026-04-30 10:32 | 35.89067 | 16.11068 | 33055 ft | 545 kts | 99° |
| 2026-04-30 10:32 | 35.87666 | 16.20206 | 33055 ft | 545 kts | 99° |
| 2026-04-30 10:33 | 35.86250 | 16.29398 | 33055 ft | 546 kts | 100° |
| 2026-04-30 10:33 | 35.84828 | 16.38589 | 33056 ft | 545 kts | 100° |
| 2026-04-30 10:34 | 35.83404 | 16.47769 | 33055 ft | 544 kts | 100° |
| 2026-04-30 10:34 | 35.81976 | 16.56893 | 33057 ft | 545 kts | 100° |
| 2026-04-30 10:35 | 35.80532 | 16.66076 | 33055 ft | 544 kts | 100° |
| 2026-04-30 10:35 | 35.79097 | 16.75167 | 33055 ft | 544 kts | 100° |
| 2026-04-30 10:36 | 35.77645 | 16.84301 | 33057 ft | 543 kts | 100° |
| 2026-04-30 10:36 | 35.76188 | 16.93425 | 33056 ft | 543 kts | 101° |
| 2026-04-30 10:37 | 35.74725 | 17.02534 | 33055 ft | 541 kts | 101° |
| 2026-04-30 10:37 | 35.73257 | 17.11621 | 33055 ft | 541 kts | 101° |
| 2026-04-30 10:38 | 35.71790 | 17.20690 | 33057 ft | 540 kts | 101° |
| 2026-04-30 10:38 | 35.70316 | 17.29750 | 33055 ft | 539 kts | 101° |
| 2026-04-30 10:39 | 35.68834 | 17.38807 | 33057 ft | 538 kts | 101° |
| 2026-04-30 10:39 | 35.67354 | 17.47805 | 33053 ft | 538 kts | 101° |
| 2026-04-30 10:40 | 35.65865 | 17.56827 | 33057 ft | 537 kts | 101° |
| 2026-04-30 10:40 | 35.64367 | 17.65830 | 33055 ft | 537 kts | 101° |
| 2026-04-30 10:41 | 35.62869 | 17.74795 | 33057 ft | 537 kts | 101° |
| 2026-04-30 10:41 | 35.61360 | 17.83798 | 33057 ft | 536 kts | 101° |
| 2026-04-30 10:42 | 35.59857 | 17.92721 | 33059 ft | 536 kts | 101° |
| 2026-04-30 10:42 | 35.58336 | 18.01694 | 33056 ft | 536 kts | 101° |
| 2026-04-30 10:43 | 35.56811 | 18.10662 | 33053 ft | 535 kts | 101° |
| 2026-04-30 10:43 | 35.55280 | 18.19619 | 33056 ft | 536 kts | 101° |
| 2026-04-30 10:44 | 35.53741 | 18.28579 | 33057 ft | 536 kts | 101° |
| 2026-04-30 10:44 | 35.52205 | 18.37489 | 33058 ft | 536 kts | 102° |
| 2026-04-30 10:45 | 35.50651 | 18.46452 | 33066 ft | 536 kts | 102° |
| 2026-04-30 10:45 | 35.49091 | 18.55408 | 33075 ft | 536 kts | 102° |
| 2026-04-30 10:46 | 35.47525 | 18.64361 | 33073 ft | 536 kts | 102° |
| 2026-04-30 10:46 | 35.45952 | 18.73311 | 33075 ft | 536 kts | 102° |
| 2026-04-30 10:47 | 35.44384 | 18.82193 | 33072 ft | 536 kts | 102° |
| 2026-04-30 10:47 | 35.42795 | 18.91148 | 33074 ft | 537 kts | 102° |
| 2026-04-30 10:48 | 35.41203 | 19.00089 | 33071 ft | 537 kts | 102° |
| 2026-04-30 10:48 | 35.39873 | 19.07511 | 33075 ft | 536 kts | 102° |
| 2026-04-30 10:49 | 35.38272 | 19.16427 | 33073 ft | 535 kts | 102° |
| 2026-04-30 10:49 | 35.36664 | 19.25342 | 33075 ft | 535 kts | 102° |
| 2026-04-30 10:50 | 35.35051 | 19.34230 | 33073 ft | 534 kts | 103° |
| 2026-04-30 10:50 | 35.33441 | 19.43071 | 33074 ft | 535 kts | 103° |
| 2026-04-30 10:51 | 35.31816 | 19.51960 | 33075 ft | 534 kts | 103° |
| 2026-04-30 10:51 | 35.30185 | 19.60839 | 33072 ft | 533 kts | 103° |
| 2026-04-30 10:52 | 35.28550 | 19.69697 | 33075 ft | 534 kts | 103° |
| 2026-04-30 10:52 | 35.26918 | 19.78513 | 33074 ft | 534 kts | 103° |
| 2026-04-30 10:53 | 35.25273 | 19.87360 | 33075 ft | 533 kts | 103° |
| 2026-04-30 10:53 | 35.23620 | 19.96202 | 33072 ft | 534 kts | 103° |
| 2026-04-30 10:54 | 35.21958 | 20.05050 | 33068 ft | 533 kts | 103° |
| 2026-04-30 10:54 | 35.20293 | 20.13883 | 33063 ft | 532 kts | 103° |
| 2026-04-30 10:55 | 35.18621 | 20.22712 | 33061 ft | 534 kts | 103° |
| 2026-04-30 10:55 | 35.16949 | 20.31510 | 33049 ft | 534 kts | 103° |
| 2026-04-30 10:56 | 35.15259 | 20.40362 | 33046 ft | 535 kts | 103° |
| 2026-04-30 10:56 | 35.13563 | 20.49217 | 33047 ft | 535 kts | 103° |
| 2026-04-30 10:57 | 35.11858 | 20.58071 | 33049 ft | 536 kts | 103° |
| 2026-04-30 10:57 | 35.10144 | 20.66936 | 33057 ft | 536 kts | 104° |
| 2026-04-30 10:58 | 35.08421 | 20.75802 | 33055 ft | 536 kts | 104° |
| 2026-04-30 10:58 | 35.06694 | 20.84667 | 33056 ft | 537 kts | 104° |
| 2026-04-30 10:59 | 35.04958 | 20.93531 | 33055 ft | 537 kts | 104° |
| 2026-04-30 10:59 | 35.03216 | 21.02386 | 33056 ft | 536 kts | 104° |
| 2026-04-30 11:00 | 35.01478 | 21.11194 | 33055 ft | 537 kts | 104° |
| 2026-04-30 11:00 | 34.99719 | 21.20073 | 33051 ft | 538 kts | 104° |
| 2026-04-30 11:01 | 34.97951 | 21.28959 | 33042 ft | 537 kts | 104° |
| 2026-04-30 11:01 | 34.96193 | 21.37757 | 33048 ft | 537 kts | 104° |
| 2026-04-30 11:02 | 34.94416 | 21.46613 | 33047 ft | 538 kts | 104° |
| 2026-04-30 11:02 | 34.92627 | 21.55499 | 33047 ft | 539 kts | 104° |
| 2026-04-30 11:03 | 34.90843 | 21.64318 | 33053 ft | 538 kts | 104° |
| 2026-04-30 11:04 | 34.88139 | 21.77618 | 33056 ft | 540 kts | 104° |
| 2026-04-30 11:04 | 34.86326 | 21.86491 | 33053 ft | 540 kts | 104° |
| 2026-04-30 11:05 | 34.84503 | 21.95379 | 33056 ft | 541 kts | 104° |
| 2026-04-30 11:05 | 34.82673 | 22.04265 | 33056 ft | 541 kts | 104° |
| 2026-04-30 11:06 | 34.80848 | 22.13094 | 33055 ft | 541 kts | 104° |
| 2026-04-30 11:06 | 34.79006 | 22.21965 | 33056 ft | 540 kts | 104° |
| 2026-04-30 11:07 | 34.77158 | 22.30835 | 33056 ft | 540 kts | 105° |
| 2026-04-30 11:07 | 34.75301 | 22.39712 | 33056 ft | 541 kts | 104° |
| 2026-04-30 11:08 | 34.73451 | 22.48525 | 33055 ft | 540 kts | 104° |
| 2026-04-30 11:08 | 34.71581 | 22.57395 | 33055 ft | 541 kts | 105° |
| 2026-04-30 11:09 | 34.69713 | 22.66223 | 33056 ft | 540 kts | 105° |
| 2026-04-30 11:09 | 34.67838 | 22.75051 | 33055 ft | 539 kts | 105° |
| 2026-04-30 11:10 | 34.65953 | 22.83891 | 33057 ft | 540 kts | 105° |
| 2026-04-30 11:10 | 34.64065 | 22.92714 | 33056 ft | 539 kts | 105° |
| 2026-04-30 11:11 | 34.61861 | 23.01400 | 33057 ft | 538 kts | 113° |
| 2026-04-30 11:11 | 34.58603 | 23.09490 | 33061 ft | 537 kts | 120° |
| 2026-04-30 11:12 | 34.55120 | 23.17501 | 33057 ft | 537 kts | 119° |
| 2026-04-30 11:12 | 34.51664 | 23.25544 | 33056 ft | 537 kts | 119° |
| 2026-04-30 11:13 | 34.48235 | 23.33595 | 33056 ft | 537 kts | 119° |
| 2026-04-30 11:13 | 34.44803 | 23.41654 | 33055 ft | 537 kts | 119° |
| 2026-04-30 11:14 | 34.41385 | 23.49654 | 33056 ft | 538 kts | 119° |
| 2026-04-30 11:14 | 34.37938 | 23.57696 | 33055 ft | 538 kts | 119° |
| 2026-04-30 11:15 | 34.34483 | 23.65735 | 33055 ft | 538 kts | 119° |
| 2026-04-30 11:15 | 34.31025 | 23.73768 | 33057 ft | 538 kts | 119° |
| 2026-04-30 11:16 | 34.27559 | 23.81801 | 33055 ft | 538 kts | 119° |
| 2026-04-30 11:16 | 34.24087 | 23.89821 | 33055 ft | 538 kts | 119° |
| 2026-04-30 11:17 | 34.20609 | 23.97844 | 33056 ft | 539 kts | 119° |
| 2026-04-30 11:17 | 34.17151 | 24.05796 | 33055 ft | 538 kts | 119° |
| 2026-04-30 11:18 | 34.13667 | 24.13796 | 33055 ft | 538 kts | 119° |
| 2026-04-30 11:18 | 34.08430 | 24.25786 | 33060 ft | 538 kts | 119° |
| 2026-04-30 11:19 | 34.04931 | 24.33777 | 33067 ft | 539 kts | 119° |
| 2026-04-30 11:19 | 34.01261 | 24.41642 | 33064 ft | 536 kts | 126° |
| 2026-04-30 11:20 | 33.96630 | 24.48591 | 33072 ft | 534 kts | 136° |
| 2026-04-30 11:20 | 33.91186 | 24.54645 | 33076 ft | 532 kts | 142° |
| 2026-04-30 11:21 | 33.85623 | 24.60510 | 33063 ft | 533 kts | 142° |
| 2026-04-30 11:21 | 33.80054 | 24.66413 | 33065 ft | 533 kts | 142° |
| 2026-04-30 11:22 | 33.74501 | 24.72349 | 33066 ft | 534 kts | 141° |
| 2026-04-30 11:22 | 33.68945 | 24.78295 | 33065 ft | 534 kts | 141° |
| 2026-04-30 11:23 | 33.63429 | 24.84191 | 33065 ft | 534 kts | 141° |
| 2026-04-30 11:24 | 33.55082 | 24.93074 | 33068 ft | 535 kts | 142° |
| 2026-04-30 11:24 | 33.49511 | 24.98990 | 33075 ft | 535 kts | 141° |
| 2026-04-30 11:25 | 33.41153 | 25.07848 | 33074 ft | 535 kts | 142° |
| 2026-04-30 11:26 | 33.29995 | 25.19636 | 33075 ft | 535 kts | 142° |
| 2026-04-30 11:26 | 33.24401 | 25.25528 | 33075 ft | 536 kts | 142° |
| 2026-04-30 11:27 | 33.18839 | 25.31376 | 33073 ft | 536 kts | 142° |
| 2026-04-30 11:27 | 33.13203 | 25.37298 | 33072 ft | 536 kts | 142° |
| 2026-04-30 11:28 | 33.04817 | 25.46081 | 33075 ft | 537 kts | 142° |
| 2026-04-30 11:29 | 32.99194 | 25.51958 | 33073 ft | 537 kts | 142° |
| 2026-04-30 11:29 | 32.90780 | 25.60735 | 33077 ft | 537 kts | 142° |
| 2026-04-30 11:30 | 32.82354 | 25.69505 | 33085 ft | 538 kts | 142° |
| 2026-04-30 11:31 | 32.76691 | 25.75379 | 33084 ft | 539 kts | 142° |
| 2026-04-30 11:31 | 32.71064 | 25.81209 | 33082 ft | 538 kts | 142° |
| 2026-04-30 11:32 | 32.65405 | 25.87060 | 33084 ft | 539 kts | 142° |
| 2026-04-30 11:32 | 32.59736 | 25.92909 | 33082 ft | 539 kts | 142° |
| 2026-04-30 11:33 | 32.51253 | 26.01655 | 33083 ft | 539 kts | 143° |
| 2026-04-30 11:33 | 32.45612 | 26.07452 | 33090 ft | 540 kts | 143° |
| 2026-04-30 11:34 | 32.39917 | 26.13297 | 33092 ft | 541 kts | 143° |
| 2026-04-30 11:34 | 32.34246 | 26.19111 | 33097 ft | 541 kts | 143° |
| 2026-04-30 11:35 | 32.28527 | 26.24960 | 33092 ft | 541 kts | 143° |
| 2026-04-30 11:35 | 32.22840 | 26.30765 | 33093 ft | 541 kts | 143° |
| 2026-04-30 11:36 | 32.17163 | 26.36551 | 33093 ft | 541 kts | 143° |
| 2026-04-30 11:36 | 32.12388 | 26.41412 | 33093 ft | 540 kts | 143° |
| 2026-04-30 11:37 | 32.05764 | 26.48139 | 33091 ft | 539 kts | 143° |
| 2026-04-30 11:37 | 32.01035 | 26.52938 | 33099 ft | 540 kts | 143° |
| 2026-04-30 11:38 | 31.95330 | 26.58713 | 33103 ft | 540 kts | 143° |
| 2026-04-30 11:38 | 31.89620 | 26.64487 | 33102 ft | 540 kts | 143° |
| 2026-04-30 11:39 | 31.83948 | 26.70210 | 33099 ft | 539 kts | 143° |
| 2026-04-30 11:39 | 31.78242 | 26.75957 | 33104 ft | 540 kts | 143° |
| 2026-04-30 11:40 | 31.72536 | 26.81697 | 33103 ft | 540 kts | 143° |
| 2026-04-30 11:40 | 31.66814 | 26.87445 | 33097 ft | 540 kts | 143° |
| 2026-04-30 11:41 | 31.61105 | 26.93167 | 33104 ft | 540 kts | 143° |
| 2026-04-30 11:41 | 31.55389 | 26.98889 | 33103 ft | 540 kts | 143° |
| 2026-04-30 11:42 | 31.49672 | 27.04599 | 33097 ft | 539 kts | 143° |
| 2026-04-30 11:42 | 31.43958 | 27.10299 | 33098 ft | 539 kts | 143° |
| 2026-04-30 11:43 | 31.38284 | 27.15950 | 33099 ft | 538 kts | 143° |
| 2026-04-30 11:43 | 31.32736 | 27.21870 | 33098 ft | 543 kts | 136° |
| 2026-04-30 11:44 | 31.28014 | 27.28814 | 33104 ft | 546 kts | 126° |
| 2026-04-30 11:44 | 31.23856 | 27.36193 | 33104 ft | 546 kts | 126° |
| 2026-04-30 11:45 | 31.19628 | 27.43587 | 33098 ft | 546 kts | 126° |
| 2026-04-30 11:45 | 31.15351 | 27.50945 | 33101 ft | 546 kts | 126° |
| 2026-04-30 11:46 | 31.11093 | 27.58226 | 33096 ft | 546 kts | 127° |
| 2026-04-30 11:46 | 31.06743 | 27.65501 | 33095 ft | 546 kts | 127° |
| 2026-04-30 11:47 | 31.02385 | 27.72755 | 33092 ft | 545 kts | 127° |
| 2026-04-30 11:47 | 30.98040 | 27.80002 | 33092 ft | 545 kts | 127° |
| 2026-04-30 11:48 | 30.93700 | 27.87239 | 33088 ft | 545 kts | 127° |
| 2026-04-30 11:48 | 30.89351 | 27.94482 | 33083 ft | 545 kts | 127° |
| 2026-04-30 11:49 | 30.85024 | 28.01670 | 33083 ft | 546 kts | 127° |
| 2026-04-30 11:49 | 30.80664 | 28.08900 | 33082 ft | 545 kts | 127° |
| 2026-04-30 11:50 | 30.76308 | 28.16112 | 33082 ft | 545 kts | 127° |
| 2026-04-30 11:50 | 30.71946 | 28.23317 | 33075 ft | 545 kts | 127° |
| 2026-04-30 11:51 | 30.67578 | 28.30519 | 33069 ft | 545 kts | 127° |
| 2026-04-30 11:51 | 30.63209 | 28.37715 | 33076 ft | 545 kts | 127° |
| 2026-04-30 11:52 | 30.58835 | 28.44905 | 33074 ft | 545 kts | 127° |
| 2026-04-30 11:52 | 30.54453 | 28.52090 | 33073 ft | 545 kts | 127° |
| 2026-04-30 11:53 | 30.50071 | 28.59265 | 33075 ft | 545 kts | 127° |
| 2026-04-30 11:53 | 30.45680 | 28.66438 | 33073 ft | 545 kts | 127° |
| 2026-04-30 11:54 | 30.41294 | 28.73600 | 33071 ft | 545 kts | 127° |
| 2026-04-30 11:54 | 30.36898 | 28.80758 | 33066 ft | 545 kts | 128° |
| 2026-04-30 11:55 | 30.32501 | 28.87908 | 33062 ft | 544 kts | 127° |
| 2026-04-30 11:55 | 30.28134 | 28.94996 | 33065 ft | 544 kts | 127° |
| 2026-04-30 11:56 | 30.23727 | 29.02135 | 33066 ft | 545 kts | 127° |
| 2026-04-30 11:56 | 30.19319 | 29.09267 | 33062 ft | 545 kts | 127° |
| 2026-04-30 11:57 | 30.14902 | 29.16391 | 33054 ft | 545 kts | 127° |
| 2026-04-30 11:57 | 30.10495 | 29.23521 | 33056 ft | 545 kts | 127° |
| 2026-04-30 11:58 | 30.06158 | 29.30719 | 33063 ft | 546 kts | 126° |
| 2026-04-30 11:58 | 30.01861 | 29.37879 | 33065 ft | 546 kts | 126° |
| 2026-04-30 11:59 | 29.97497 | 29.45113 | 33064 ft | 546 kts | 127° |
| 2026-04-30 11:59 | 29.93163 | 29.52264 | 33064 ft | 547 kts | 127° |
| 2026-04-30 12:00 | 29.88795 | 29.59452 | 33062 ft | 547 kts | 127° |
| 2026-04-30 12:00 | 29.84418 | 29.66643 | 33058 ft | 547 kts | 127° |
| 2026-04-30 12:01 | 29.80064 | 29.73793 | 33041 ft | 547 kts | 128° |
| 2026-04-30 12:01 | 29.75685 | 29.80970 | 33039 ft | 546 kts | 128° |
| 2026-04-30 12:02 | 29.71328 | 29.88096 | 33040 ft | 546 kts | 128° |
| 2026-04-30 12:02 | 29.66943 | 29.95252 | 33037 ft | 546 kts | 128° |
| 2026-04-30 12:03 | 29.60369 | 30.05966 | 33032 ft | 546 kts | 128° |
| 2026-04-30 12:04 | 29.55990 | 30.13080 | 33027 ft | 546 kts | 128° |
| 2026-04-30 12:04 | 29.51586 | 30.20228 | 33030 ft | 546 kts | 128° |
| 2026-04-30 12:05 | 29.47204 | 30.27328 | 33027 ft | 547 kts | 128° |
| 2026-04-30 12:05 | 29.42793 | 30.34465 | 33029 ft | 547 kts | 128° |
| 2026-04-30 12:06 | 29.38212 | 30.41355 | 33027 ft | 544 kts | 136° |
| 2026-04-30 12:06 | 29.32955 | 30.47606 | 33035 ft | 544 kts | 138° |
| 2026-04-30 12:07 | 29.27675 | 30.53772 | 33027 ft | 544 kts | 138° |
| 2026-04-30 12:07 | 29.22407 | 30.59991 | 33034 ft | 543 kts | 138° |
| 2026-04-30 12:08 | 29.17148 | 30.66240 | 33034 ft | 543 kts | 137° |
| 2026-04-30 12:08 | 29.11915 | 30.72449 | 33036 ft | 544 kts | 138° |
| 2026-04-30 12:09 | 29.06640 | 30.78698 | 33034 ft | 545 kts | 138° |
| 2026-04-30 12:09 | 29.01406 | 30.84883 | 33032 ft | 544 kts | 138° |
| 2026-04-30 12:10 | 28.96134 | 30.91103 | 33038 ft | 544 kts | 138° |
| 2026-04-30 12:10 | 28.90852 | 30.97326 | 33028 ft | 545 kts | 138° |
| 2026-04-30 12:11 | 28.85590 | 31.03509 | 33024 ft | 545 kts | 138° |
| 2026-04-30 12:11 | 28.80295 | 31.09731 | 33020 ft | 545 kts | 138° |
| 2026-04-30 12:12 | 28.75012 | 31.15930 | 33014 ft | 544 kts | 138° |
| 2026-04-30 12:12 | 28.69751 | 31.22090 | 33016 ft | 544 kts | 138° |
| 2026-04-30 12:13 | 28.64602 | 31.28429 | 33018 ft | 546 kts | 135° |
| 2026-04-30 12:13 | 28.59550 | 31.34898 | 33022 ft | 546 kts | 135° |
| 2026-04-30 12:14 | 28.54508 | 31.41314 | 33018 ft | 546 kts | 136° |
| 2026-04-30 12:14 | 28.49412 | 31.47726 | 33026 ft | 546 kts | 136° |
| 2026-04-30 12:15 | 28.44298 | 31.54130 | 33029 ft | 546 kts | 136° |
| 2026-04-30 12:15 | 28.39217 | 31.60489 | 33026 ft | 546 kts | 136° |